sensor_id;sensor_type;location;lat;lon;timestamp;P1;durP1;ratioP1;P2;durP2;ratioP2
51558;SDS011;61650;48.882;2.092;2022-10-31T00:02:17;8.60;;;5.80;;
51558;SDS011;61650;48.882;2.092;2022-10-31T00:04:42;6.80;;;5.20;;
51558;SDS011;61650;48.882;2.092;2022-10-31T00:07:08;6.90;;;5.43;;
51558;SDS011;61650;48.882;2.092;2022-10-31T00:09:33;7.20;;;5.10;;
51558;SDS011;61650;48.882;2.092;2022-10-31T00:11:59;8.33;;;5.10;;
51558;SDS011;61650;48.882;2.092;2022-10-31T00:14:24;6.00;;;4.30;;
51558;SDS011;61650;48.882;2.092;2022-10-31T00:16:50;5.30;;;4.33;;
51558;SDS011;61650;48.882;2.092;2022-10-31T00:19:15;5.83;;;4.63;;
51558;SDS011;61650;48.882;2.092;2022-10-31T00:21:41;5.97;;;4.53;;
51558;SDS011;61650;48.882;2.092;2022-10-31T00:24:07;6.40;;;4.67;;
51558;SDS011;61650;48.882;2.092;2022-10-31T00:26:32;5.40;;;4.10;;
51558;SDS011;61650;48.882;2.092;2022-10-31T00:28:58;5.73;;;4.37;;
51558;SDS011;61650;48.882;2.092;2022-10-31T00:31:24;4.70;;;3.80;;
51558;SDS011;61650;48.882;2.092;2022-10-31T00:33:50;5.93;;;4.30;;
51558;SDS011;61650;48.882;2.092;2022-10-31T00:36:16;4.80;;;4.37;;
51558;SDS011;61650;48.882;2.092;2022-10-31T00:38:44;6.10;;;4.40;;
51558;SDS011;61650;48.882;2.092;2022-10-31T00:41:10;6.50;;;4.50;;
51558;SDS011;61650;48.882;2.092;2022-10-31T00:43:37;5.70;;;4.07;;
51558;SDS011;61650;48.882;2.092;2022-10-31T00:46:02;4.50;;;4.10;;
51558;SDS011;61650;48.882;2.092;2022-10-31T00:48:28;4.23;;;3.83;;
51558;SDS011;61650;48.882;2.092;2022-10-31T00:50:54;4.43;;;3.93;;
51558;SDS011;61650;48.882;2.092;2022-10-31T00:53:20;5.13;;;3.67;;
51558;SDS011;61650;48.882;2.092;2022-10-31T00:55:46;4.73;;;4.03;;
51558;SDS011;61650;48.882;2.092;2022-10-31T00:58:12;4.77;;;4.30;;
51558;SDS011;61650;48.882;2.092;2022-10-31T01:00:37;5.53;;;4.07;;
51558;SDS011;61650;48.882;2.092;2022-10-31T01:03:03;6.97;;;4.60;;
51558;SDS011;61650;48.882;2.092;2022-10-31T01:05:28;5.00;;;3.80;;
51558;SDS011;61650;48.882;2.092;2022-10-31T01:07:54;6.80;;;4.20;;
51558;SDS011;61650;48.882;2.092;2022-10-31T01:10:20;6.63;;;3.83;;
51558;SDS011;61650;48.882;2.092;2022-10-31T01:12:46;5.00;;;4.30;;
51558;SDS011;61650;48.882;2.092;2022-10-31T01:15:13;7.47;;;4.30;;
51558;SDS011;61650;48.882;2.092;2022-10-31T01:17:44;5.97;;;4.70;;
51558;SDS011;61650;48.882;2.092;2022-10-31T01:20:11;4.77;;;3.97;;
51558;SDS011;61650;48.882;2.092;2022-10-31T01:22:37;5.70;;;3.80;;
51558;SDS011;61650;48.882;2.092;2022-10-31T01:25:03;4.00;;;3.60;;
51558;SDS011;61650;48.882;2.092;2022-10-31T01:27:30;3.97;;;3.60;;
51558;SDS011;61650;48.882;2.092;2022-10-31T01:29:56;5.40;;;3.53;;
51558;SDS011;61650;48.882;2.092;2022-10-31T01:32:22;4.87;;;4.20;;
51558;SDS011;61650;48.882;2.092;2022-10-31T01:34:47;4.10;;;3.50;;
51558;SDS011;61650;48.882;2.092;2022-10-31T01:37:13;4.63;;;3.80;;
51558;SDS011;61650;48.882;2.092;2022-10-31T01:39:39;9.23;;;3.80;;
51558;SDS011;61650;48.882;2.092;2022-10-31T01:42:04;6.10;;;3.53;;
51558;SDS011;61650;48.882;2.092;2022-10-31T01:49:39;4.50;;;3.57;;
51558;SDS011;61650;48.882;2.092;2022-10-31T01:55:13;5.30;;;3.67;;
51558;SDS011;61650;48.882;2.092;2022-10-31T01:57:41;3.70;;;3.40;;
51558;SDS011;61650;48.882;2.092;2022-10-31T02:00:09;12.43;;;4.13;;
51558;SDS011;61650;48.882;2.092;2022-10-31T02:02:36;5.13;;;3.17;;
51558;SDS011;61650;48.882;2.092;2022-10-31T02:05:02;4.97;;;3.50;;
51558;SDS011;61650;48.882;2.092;2022-10-31T02:07:34;5.73;;;3.27;;
51558;SDS011;61650;48.882;2.092;2022-10-31T02:10:05;6.10;;;3.20;;
51558;SDS011;61650;48.882;2.092;2022-10-31T02:12:31;4.30;;;3.40;;
51558;SDS011;61650;48.882;2.092;2022-10-31T02:15:01;5.83;;;3.77;;
51558;SDS011;61650;48.882;2.092;2022-10-31T02:17:26;5.60;;;3.40;;
51558;SDS011;61650;48.882;2.092;2022-10-31T02:19:56;3.80;;;3.40;;
51558;SDS011;61650;48.882;2.092;2022-10-31T02:28:01;9.43;;;3.30;;
51558;SDS011;61650;48.882;2.092;2022-10-31T02:31:01;3.83;;;2.83;;
51558;SDS011;61650;48.882;2.092;2022-10-31T02:34:00;4.00;;;2.20;;
51558;SDS011;61650;48.882;2.092;2022-10-31T02:39:44;7.10;;;3.50;;
51558;SDS011;61650;48.882;2.092;2022-10-31T02:45:06;3.67;;;2.73;;
51558;SDS011;61650;48.882;2.092;2022-10-31T02:47:39;5.63;;;2.90;;
51558;SDS011;61650;48.882;2.092;2022-10-31T02:50:07;3.20;;;2.90;;
51558;SDS011;61650;48.882;2.092;2022-10-31T02:52:37;4.20;;;2.43;;
51558;SDS011;61650;48.882;2.092;2022-10-31T02:57:47;2.90;;;2.60;;
51558;SDS011;61650;48.882;2.092;2022-10-31T03:00:13;3.00;;;2.30;;
51558;SDS011;61650;48.882;2.092;2022-10-31T03:02:45;2.90;;;2.63;;
51558;SDS011;61650;48.882;2.092;2022-10-31T03:08:19;3.10;;;2.40;;
51558;SDS011;61650;48.882;2.092;2022-10-31T03:13:35;3.83;;;2.60;;
51558;SDS011;61650;48.882;2.092;2022-10-31T03:19:08;4.23;;;2.70;;
51558;SDS011;61650;48.882;2.092;2022-10-31T03:21:40;4.30;;;2.80;;
51558;SDS011;61650;48.882;2.092;2022-10-31T03:24:20;5.03;;;2.80;;
51558;SDS011;61650;48.882;2.092;2022-10-31T03:26:50;4.17;;;2.70;;
51558;SDS011;61650;48.882;2.092;2022-10-31T03:29:19;5.80;;;2.90;;
51558;SDS011;61650;48.882;2.092;2022-10-31T03:31:49;3.97;;;3.00;;
51558;SDS011;61650;48.882;2.092;2022-10-31T03:34:18;2.70;;;2.50;;
51558;SDS011;61650;48.882;2.092;2022-10-31T03:36:45;4.43;;;2.93;;
51558;SDS011;61650;48.882;2.092;2022-10-31T03:39:14;4.93;;;3.20;;
51558;SDS011;61650;48.882;2.092;2022-10-31T03:41:43;4.40;;;2.90;;
51558;SDS011;61650;48.882;2.092;2022-10-31T03:44:13;3.10;;;2.50;;
51558;SDS011;61650;48.882;2.092;2022-10-31T03:46:42;3.40;;;2.30;;
51558;SDS011;61650;48.882;2.092;2022-10-31T03:49:08;4.73;;;2.30;;
51558;SDS011;61650;48.882;2.092;2022-10-31T03:54:26;4.77;;;2.67;;
51558;SDS011;61650;48.882;2.092;2022-10-31T03:56:56;3.77;;;3.00;;
51558;SDS011;61650;48.882;2.092;2022-10-31T03:59:30;3.50;;;2.23;;
51558;SDS011;61650;48.882;2.092;2022-10-31T04:02:01;3.50;;;2.50;;
51558;SDS011;61650;48.882;2.092;2022-10-31T04:04:31;3.30;;;2.47;;
51558;SDS011;61650;48.882;2.092;2022-10-31T04:06:58;3.30;;;2.63;;
51558;SDS011;61650;48.882;2.092;2022-10-31T04:09:26;3.50;;;2.50;;
51558;SDS011;61650;48.882;2.092;2022-10-31T04:11:54;4.00;;;2.60;;
51558;SDS011;61650;48.882;2.092;2022-10-31T04:14:25;2.60;;;2.23;;
51558;SDS011;61650;48.882;2.092;2022-10-31T04:16:56;3.87;;;2.60;;
51558;SDS011;61650;48.882;2.092;2022-10-31T04:19:21;3.93;;;2.13;;
51558;SDS011;61650;48.882;2.092;2022-10-31T04:21:47;2.60;;;2.40;;
51558;SDS011;61650;48.882;2.092;2022-10-31T04:24:12;2.33;;;2.13;;
51558;SDS011;61650;48.882;2.092;2022-10-31T04:26:38;3.37;;;2.93;;
51558;SDS011;61650;48.882;2.092;2022-10-31T04:29:04;3.73;;;2.23;;
51558;SDS011;61650;48.882;2.092;2022-10-31T04:31:29;3.27;;;2.50;;
51558;SDS011;61650;48.882;2.092;2022-10-31T04:33:55;3.90;;;2.33;;
51558;SDS011;61650;48.882;2.092;2022-10-31T04:36:20;3.07;;;2.40;;
51558;SDS011;61650;48.882;2.092;2022-10-31T04:38:46;2.70;;;2.30;;
51558;SDS011;61650;48.882;2.092;2022-10-31T04:41:12;4.23;;;2.73;;
51558;SDS011;61650;48.882;2.092;2022-10-31T04:43:37;2.80;;;2.30;;
51558;SDS011;61650;48.882;2.092;2022-10-31T04:46:03;2.97;;;2.20;;
51558;SDS011;61650;48.882;2.092;2022-10-31T04:48:29;5.00;;;2.97;;
51558;SDS011;61650;48.882;2.092;2022-10-31T04:51:01;4.53;;;2.83;;
51558;SDS011;61650;48.882;2.092;2022-10-31T04:53:27;2.70;;;2.43;;
51558;SDS011;61650;48.882;2.092;2022-10-31T04:55:53;3.40;;;2.80;;
51558;SDS011;61650;48.882;2.092;2022-10-31T04:58:19;4.17;;;2.80;;
51558;SDS011;61650;48.882;2.092;2022-10-31T05:00:45;5.37;;;3.00;;
51558;SDS011;61650;48.882;2.092;2022-10-31T05:03:10;3.10;;;2.47;;
51558;SDS011;61650;48.882;2.092;2022-10-31T05:05:36;4.70;;;2.40;;
51558;SDS011;61650;48.882;2.092;2022-10-31T05:08:02;4.60;;;2.97;;
51558;SDS011;61650;48.882;2.092;2022-10-31T05:10:29;2.80;;;2.50;;
51558;SDS011;61650;48.882;2.092;2022-10-31T05:12:56;2.80;;;2.50;;
51558;SDS011;61650;48.882;2.092;2022-10-31T05:15:24;3.77;;;2.83;;
51558;SDS011;61650;48.882;2.092;2022-10-31T05:17:51;4.47;;;3.20;;
51558;SDS011;61650;48.882;2.092;2022-10-31T05:20:18;3.20;;;2.60;;
51558;SDS011;61650;48.882;2.092;2022-10-31T05:22:46;7.40;;;2.87;;
51558;SDS011;61650;48.882;2.092;2022-10-31T05:25:13;3.30;;;2.50;;
51558;SDS011;61650;48.882;2.092;2022-10-31T05:27:39;4.23;;;2.37;;
51558;SDS011;61650;48.882;2.092;2022-10-31T05:30:10;4.20;;;2.90;;
51558;SDS011;61650;48.882;2.092;2022-10-31T05:32:42;3.23;;;2.90;;
51558;SDS011;61650;48.882;2.092;2022-10-31T05:35:10;3.90;;;3.47;;
51558;SDS011;61650;48.882;2.092;2022-10-31T05:37:40;4.63;;;3.50;;
51558;SDS011;61650;48.882;2.092;2022-10-31T05:40:07;4.73;;;3.10;;
51558;SDS011;61650;48.882;2.092;2022-10-31T05:42:34;5.43;;;3.63;;
51558;SDS011;61650;48.882;2.092;2022-10-31T05:45:00;3.43;;;3.13;;
51558;SDS011;61650;48.882;2.092;2022-10-31T05:47:26;5.40;;;3.27;;
51558;SDS011;61650;48.882;2.092;2022-10-31T05:49:52;7.23;;;3.60;;
51558;SDS011;61650;48.882;2.092;2022-10-31T05:52:18;7.77;;;4.50;;
51558;SDS011;61650;48.882;2.092;2022-10-31T05:54:44;4.80;;;4.30;;
51558;SDS011;61650;48.882;2.092;2022-10-31T05:57:10;4.50;;;4.10;;
51558;SDS011;61650;48.882;2.092;2022-10-31T05:59:36;5.27;;;4.37;;
51558;SDS011;61650;48.882;2.092;2022-10-31T06:02:01;3.93;;;3.17;;
51558;SDS011;61650;48.882;2.092;2022-10-31T06:04:27;5.43;;;3.33;;
51558;SDS011;61650;48.882;2.092;2022-10-31T06:06:52;3.30;;;3.00;;
51558;SDS011;61650;48.882;2.092;2022-10-31T06:09:18;5.97;;;3.30;;
51558;SDS011;61650;48.882;2.092;2022-10-31T06:11:43;3.90;;;3.37;;
51558;SDS011;61650;48.882;2.092;2022-10-31T06:14:09;4.80;;;3.70;;
51558;SDS011;61650;48.882;2.092;2022-10-31T06:16:35;4.90;;;3.13;;
51558;SDS011;61650;48.882;2.092;2022-10-31T06:19:00;3.90;;;3.60;;
51558;SDS011;61650;48.882;2.092;2022-10-31T06:21:26;4.67;;;4.10;;
51558;SDS011;61650;48.882;2.092;2022-10-31T06:23:51;6.93;;;4.47;;
51558;SDS011;61650;48.882;2.092;2022-10-31T06:26:17;4.17;;;3.77;;
51558;SDS011;61650;48.882;2.092;2022-10-31T06:28:42;3.80;;;3.40;;
51558;SDS011;61650;48.882;2.092;2022-10-31T06:31:08;4.70;;;4.13;;
51558;SDS011;61650;48.882;2.092;2022-10-31T06:33:34;6.27;;;4.20;;
51558;SDS011;61650;48.882;2.092;2022-10-31T06:35:59;7.10;;;4.80;;
51558;SDS011;61650;48.882;2.092;2022-10-31T06:38:26;6.40;;;4.03;;
51558;SDS011;61650;48.882;2.092;2022-10-31T06:40:52;7.17;;;4.30;;
51558;SDS011;61650;48.882;2.092;2022-10-31T06:43:19;4.87;;;3.63;;
51558;SDS011;61650;48.882;2.092;2022-10-31T06:45:45;4.20;;;3.80;;
51558;SDS011;61650;48.882;2.092;2022-10-31T06:48:11;5.70;;;4.20;;
51558;SDS011;61650;48.882;2.092;2022-10-31T06:50:36;4.97;;;4.20;;
51558;SDS011;61650;48.882;2.092;2022-10-31T06:53:02;5.20;;;4.20;;
51558;SDS011;61650;48.882;2.092;2022-10-31T06:55:28;6.40;;;4.33;;
51558;SDS011;61650;48.882;2.092;2022-10-31T06:57:54;4.30;;;3.90;;
51558;SDS011;61650;48.882;2.092;2022-10-31T07:00:24;8.27;;;4.33;;
51558;SDS011;61650;48.882;2.092;2022-10-31T07:02:58;6.93;;;4.70;;
51558;SDS011;61650;48.882;2.092;2022-10-31T07:05:25;7.27;;;5.80;;
51558;SDS011;61650;48.882;2.092;2022-10-31T07:07:53;5.63;;;5.13;;
51558;SDS011;61650;48.882;2.092;2022-10-31T07:10:20;7.33;;;5.40;;
51558;SDS011;61650;48.882;2.092;2022-10-31T07:12:46;6.90;;;5.90;;
51558;SDS011;61650;48.882;2.092;2022-10-31T07:15:12;6.80;;;5.87;;
51558;SDS011;61650;48.882;2.092;2022-10-31T07:17:38;6.90;;;6.07;;
51558;SDS011;61650;48.882;2.092;2022-10-31T07:20:03;7.40;;;5.40;;
51558;SDS011;61650;48.882;2.092;2022-10-31T07:22:36;7.23;;;5.57;;
51558;SDS011;61650;48.882;2.092;2022-10-31T07:25:02;6.87;;;5.70;;
51558;SDS011;61650;48.882;2.092;2022-10-31T07:27:27;6.07;;;4.80;;
51558;SDS011;61650;48.882;2.092;2022-10-31T07:29:53;6.20;;;5.27;;
51558;SDS011;61650;48.882;2.092;2022-10-31T07:32:19;7.13;;;5.23;;
51558;SDS011;61650;48.882;2.092;2022-10-31T07:34:44;6.60;;;4.70;;
51558;SDS011;61650;48.882;2.092;2022-10-31T07:37:10;5.50;;;4.67;;
51558;SDS011;61650;48.882;2.092;2022-10-31T07:39:35;5.33;;;4.83;;
51558;SDS011;61650;48.882;2.092;2022-10-31T07:42:01;5.90;;;5.30;;
51558;SDS011;61650;48.882;2.092;2022-10-31T07:44:26;9.87;;;5.53;;
51558;SDS011;61650;48.882;2.092;2022-10-31T07:46:52;8.27;;;5.80;;
51558;SDS011;61650;48.882;2.092;2022-10-31T07:49:17;5.80;;;5.07;;
51558;SDS011;61650;48.882;2.092;2022-10-31T07:51:43;11.10;;;5.83;;
51558;SDS011;61650;48.882;2.092;2022-10-31T07:54:09;11.03;;;6.50;;
51558;SDS011;61650;48.882;2.092;2022-10-31T07:56:34;9.27;;;6.77;;
51558;SDS011;61650;48.882;2.092;2022-10-31T07:59:00;7.60;;;6.80;;
51558;SDS011;61650;48.882;2.092;2022-10-31T08:01:25;8.20;;;5.90;;
51558;SDS011;61650;48.882;2.092;2022-10-31T08:03:51;7.73;;;6.07;;
51558;SDS011;61650;48.882;2.092;2022-10-31T08:06:16;7.83;;;6.37;;
51558;SDS011;61650;48.882;2.092;2022-10-31T08:08:42;7.37;;;6.67;;
51558;SDS011;61650;48.882;2.092;2022-10-31T08:11:07;8.10;;;6.27;;
51558;SDS011;61650;48.882;2.092;2022-10-31T08:13:33;8.17;;;7.23;;
51558;SDS011;61650;48.882;2.092;2022-10-31T08:15:59;8.70;;;6.33;;
51558;SDS011;61650;48.882;2.092;2022-10-31T08:18:29;6.93;;;6.23;;
51558;SDS011;61650;48.882;2.092;2022-10-31T08:20:55;8.57;;;7.60;;
51558;SDS011;61650;48.882;2.092;2022-10-31T08:23:21;8.53;;;7.03;;
51558;SDS011;61650;48.882;2.092;2022-10-31T08:25:46;8.77;;;7.57;;
51558;SDS011;61650;48.882;2.092;2022-10-31T08:28:13;11.83;;;8.47;;
51558;SDS011;61650;48.882;2.092;2022-10-31T08:30:39;14.53;;;9.67;;
51558;SDS011;61650;48.882;2.092;2022-10-31T08:33:13;13.00;;;10.43;;
51558;SDS011;61650;48.882;2.092;2022-10-31T08:35:40;14.97;;;11.43;;
51558;SDS011;61650;48.882;2.092;2022-10-31T08:38:07;14.03;;;11.00;;
51558;SDS011;61650;48.882;2.092;2022-10-31T08:40:34;17.30;;;10.87;;
51558;SDS011;61650;48.882;2.092;2022-10-31T08:43:10;15.67;;;11.60;;
51558;SDS011;61650;48.882;2.092;2022-10-31T08:45:38;20.00;;;11.93;;
51558;SDS011;61650;48.882;2.092;2022-10-31T08:48:06;16.13;;;11.77;;
51558;SDS011;61650;48.882;2.092;2022-10-31T08:50:35;18.10;;;12.53;;
51558;SDS011;61650;48.882;2.092;2022-10-31T08:53:01;13.53;;;11.13;;
51558;SDS011;61650;48.882;2.092;2022-10-31T08:55:28;18.17;;;12.00;;
51558;SDS011;61650;48.882;2.092;2022-10-31T08:57:54;14.30;;;12.17;;
51558;SDS011;61650;48.882;2.092;2022-10-31T09:00:21;18.40;;;12.37;;
51558;SDS011;61650;48.882;2.092;2022-10-31T09:02:47;13.50;;;11.20;;
51558;SDS011;61650;48.882;2.092;2022-10-31T09:05:12;18.47;;;12.60;;
51558;SDS011;61650;48.882;2.092;2022-10-31T09:07:38;14.67;;;11.50;;
51558;SDS011;61650;48.882;2.092;2022-10-31T09:10:03;12.30;;;11.00;;
51558;SDS011;61650;48.882;2.092;2022-10-31T09:12:29;17.17;;;12.50;;
51558;SDS011;61650;48.882;2.092;2022-10-31T09:14:55;17.27;;;11.60;;
51558;SDS011;61650;48.882;2.092;2022-10-31T09:17:20;13.83;;;11.83;;
51558;SDS011;61650;48.882;2.092;2022-10-31T09:19:46;15.50;;;11.30;;
51558;SDS011;61650;48.882;2.092;2022-10-31T09:22:12;14.90;;;11.90;;
51558;SDS011;61650;48.882;2.092;2022-10-31T09:24:37;15.30;;;12.47;;
51558;SDS011;61650;48.882;2.092;2022-10-31T09:27:03;16.17;;;11.70;;
51558;SDS011;61650;48.882;2.092;2022-10-31T09:29:28;16.00;;;10.80;;
51558;SDS011;61650;48.882;2.092;2022-10-31T09:31:55;13.17;;;11.30;;
51558;SDS011;61650;48.882;2.092;2022-10-31T09:34:21;16.23;;;12.20;;
51558;SDS011;61650;48.882;2.092;2022-10-31T09:36:47;16.17;;;11.97;;
51558;SDS011;61650;48.882;2.092;2022-10-31T09:39:13;14.30;;;11.17;;
51558;SDS011;61650;48.882;2.092;2022-10-31T09:41:51;18.90;;;11.93;;
51558;SDS011;61650;48.882;2.092;2022-10-31T09:44:51;14.90;;;11.80;;
51558;SDS011;61650;48.882;2.092;2022-10-31T09:47:31;16.57;;;11.00;;
51558;SDS011;61650;48.882;2.092;2022-10-31T09:50:19;18.17;;;11.23;;
51558;SDS011;61650;48.882;2.092;2022-10-31T09:52:51;14.27;;;10.40;;
51558;SDS011;61650;48.882;2.092;2022-10-31T09:58:01;14.53;;;10.67;;
51558;SDS011;61650;48.882;2.092;2022-10-31T10:00:28;15.57;;;10.30;;
51558;SDS011;61650;48.882;2.092;2022-10-31T10:05:52;16.87;;;10.50;;
51558;SDS011;61650;48.882;2.092;2022-10-31T10:08:38;18.97;;;10.77;;
51558;SDS011;61650;48.882;2.092;2022-10-31T10:14:13;17.07;;;10.10;;
51558;SDS011;61650;48.882;2.092;2022-10-31T10:25:19;16.07;;;9.57;;
51558;SDS011;61650;48.882;2.092;2022-10-31T10:30:39;13.53;;;10.17;;
51558;SDS011;61650;48.882;2.092;2022-10-31T10:33:24;10.43;;;9.03;;
51558;SDS011;61650;48.882;2.092;2022-10-31T10:35:55;13.60;;;9.90;;
51558;SDS011;61650;48.882;2.092;2022-10-31T10:41:04;15.80;;;10.13;;
51558;SDS011;61650;48.882;2.092;2022-10-31T10:43:35;13.40;;;9.43;;
51558;SDS011;61650;48.882;2.092;2022-10-31T10:49:12;12.60;;;9.33;;
51558;SDS011;61650;48.882;2.092;2022-10-31T10:59:18;19.60;;;10.13;;
51558;SDS011;61650;48.882;2.092;2022-10-31T11:01:47;13.47;;;10.17;;
51558;SDS011;61650;48.882;2.092;2022-10-31T11:04:34;14.13;;;9.13;;
51558;SDS011;61650;48.882;2.092;2022-10-31T11:07:05;14.10;;;10.03;;
51558;SDS011;61650;48.882;2.092;2022-10-31T11:09:33;15.53;;;10.80;;
51558;SDS011;61650;48.882;2.092;2022-10-31T11:11:59;11.70;;;9.13;;
51558;SDS011;61650;48.882;2.092;2022-10-31T11:14:31;14.07;;;8.60;;
51558;SDS011;61650;48.882;2.092;2022-10-31T11:17:22;13.90;;;8.80;;
51558;SDS011;61650;48.882;2.092;2022-10-31T11:20:25;11.13;;;8.60;;
51558;SDS011;61650;48.882;2.092;2022-10-31T11:23:03;11.00;;;8.43;;
51558;SDS011;61650;48.882;2.092;2022-10-31T11:25:47;16.57;;;8.50;;
51558;SDS011;61650;48.882;2.092;2022-10-31T11:28:15;12.03;;;7.93;;
51558;SDS011;61650;48.882;2.092;2022-10-31T11:30:48;12.80;;;7.97;;
51558;SDS011;61650;48.882;2.092;2022-10-31T11:33:28;10.37;;;6.83;;
51558;SDS011;61650;48.882;2.092;2022-10-31T11:36:09;9.07;;;6.53;;
51558;SDS011;61650;48.882;2.092;2022-10-31T11:38:50;10.40;;;6.40;;
51558;SDS011;61650;48.882;2.092;2022-10-31T11:41:27;8.43;;;6.13;;
51558;SDS011;61650;48.882;2.092;2022-10-31T11:43:58;11.03;;;7.30;;
51558;SDS011;61650;48.882;2.092;2022-10-31T11:46:40;11.30;;;6.97;;
51558;SDS011;61650;48.882;2.092;2022-10-31T11:49:27;12.03;;;7.30;;
51558;SDS011;61650;48.882;2.092;2022-10-31T11:51:54;13.87;;;6.73;;
51558;SDS011;61650;48.882;2.092;2022-10-31T11:54:27;10.47;;;6.53;;
51558;SDS011;61650;48.882;2.092;2022-10-31T11:56:55;13.20;;;6.77;;
51558;SDS011;61650;48.882;2.092;2022-10-31T11:59:23;9.03;;;7.00;;
51558;SDS011;61650;48.882;2.092;2022-10-31T12:01:49;10.57;;;7.00;;
51558;SDS011;61650;48.882;2.092;2022-10-31T12:04:16;7.93;;;6.50;;
51558;SDS011;61650;48.882;2.092;2022-10-31T12:06:43;10.47;;;7.80;;
51558;SDS011;61650;48.882;2.092;2022-10-31T12:09:17;10.97;;;7.07;;
51558;SDS011;61650;48.882;2.092;2022-10-31T12:14:28;9.00;;;6.20;;
51558;SDS011;61650;48.882;2.092;2022-10-31T12:17:10;14.97;;;6.77;;
51558;SDS011;61650;48.882;2.092;2022-10-31T12:19:57;15.80;;;8.10;;
51558;SDS011;61650;48.882;2.092;2022-10-31T12:33:47;9.07;;;6.83;;
51558;SDS011;61650;48.882;2.092;2022-10-31T12:36:44;10.57;;;6.60;;
51558;SDS011;61650;48.882;2.092;2022-10-31T12:44:49;14.20;;;7.37;;
51558;SDS011;61650;48.882;2.092;2022-10-31T12:53:19;13.07;;;6.30;;
51558;SDS011;61650;48.882;2.092;2022-10-31T12:58:33;11.30;;;7.10;;
51558;SDS011;61650;48.882;2.092;2022-10-31T13:01:08;13.27;;;7.60;;
51558;SDS011;61650;48.882;2.092;2022-10-31T13:03:59;10.40;;;7.03;;
51558;SDS011;61650;48.882;2.092;2022-10-31T13:06:34;11.10;;;6.60;;
51558;SDS011;61650;48.882;2.092;2022-10-31T13:09:13;11.60;;;7.37;;
51558;SDS011;61650;48.882;2.092;2022-10-31T13:11:44;13.33;;;8.10;;
51558;SDS011;61650;48.882;2.092;2022-10-31T13:14:17;10.40;;;6.43;;
51558;SDS011;61650;48.882;2.092;2022-10-31T13:16:46;11.70;;;7.20;;
51558;SDS011;61650;48.882;2.092;2022-10-31T13:19:22;12.40;;;7.40;;
51558;SDS011;61650;48.882;2.092;2022-10-31T13:24:43;10.73;;;7.23;;
51558;SDS011;61650;48.882;2.092;2022-10-31T13:27:23;10.60;;;7.20;;
51558;SDS011;61650;48.882;2.092;2022-10-31T13:30:00;11.87;;;6.80;;
51558;SDS011;61650;48.882;2.092;2022-10-31T13:32:30;10.00;;;6.87;;
51558;SDS011;61650;48.882;2.092;2022-10-31T13:35:19;9.17;;;6.97;;
51558;SDS011;61650;48.882;2.092;2022-10-31T13:38:16;12.50;;;7.47;;
51558;SDS011;61650;48.882;2.092;2022-10-31T13:41:05;9.80;;;7.60;;
51558;SDS011;61650;48.882;2.092;2022-10-31T13:46:37;10.27;;;7.90;;
51558;SDS011;61650;48.882;2.092;2022-10-31T13:49:20;13.10;;;7.33;;
51558;SDS011;61650;48.882;2.092;2022-10-31T13:51:49;9.63;;;6.80;;
51558;SDS011;61650;48.882;2.092;2022-10-31T13:56:49;11.90;;;7.40;;
51558;SDS011;61650;48.882;2.092;2022-10-31T13:59:22;13.43;;;8.13;;
51558;SDS011;61650;48.882;2.092;2022-10-31T14:02:00;10.27;;;7.43;;
51558;SDS011;61650;48.882;2.092;2022-10-31T14:04:38;10.53;;;7.50;;
51558;SDS011;61650;48.882;2.092;2022-10-31T14:07:12;13.63;;;8.17;;
51558;SDS011;61650;48.882;2.092;2022-10-31T14:12:43;12.90;;;7.93;;
51558;SDS011;61650;48.882;2.092;2022-10-31T14:15:21;19.27;;;7.63;;
51558;SDS011;61650;48.882;2.092;2022-10-31T14:17:50;11.20;;;6.80;;
51558;SDS011;61650;48.882;2.092;2022-10-31T14:20:22;11.23;;;7.10;;
51558;SDS011;61650;48.882;2.092;2022-10-31T14:23:11;16.70;;;7.93;;
51558;SDS011;61650;48.882;2.092;2022-10-31T14:25:51;13.30;;;6.83;;
51558;SDS011;61650;48.882;2.092;2022-10-31T14:28:18;11.83;;;6.60;;
51558;SDS011;61650;48.882;2.092;2022-10-31T14:30:56;11.63;;;7.80;;
51558;SDS011;61650;48.882;2.092;2022-10-31T14:33:24;12.17;;;6.73;;
51558;SDS011;61650;48.882;2.092;2022-10-31T14:36:12;10.63;;;7.10;;
51558;SDS011;61650;48.882;2.092;2022-10-31T14:38:49;13.40;;;7.40;;
51558;SDS011;61650;48.882;2.092;2022-10-31T14:44:33;9.93;;;7.40;;
51558;SDS011;61650;48.882;2.092;2022-10-31T14:50:14;12.60;;;7.67;;
51558;SDS011;61650;48.882;2.092;2022-10-31T14:53:05;30.23;;;8.40;;
51558;SDS011;61650;48.882;2.092;2022-10-31T14:55:39;19.00;;;8.33;;
51558;SDS011;61650;48.882;2.092;2022-10-31T14:58:12;10.27;;;7.90;;
51558;SDS011;61650;48.882;2.092;2022-10-31T15:00:44;13.20;;;7.63;;
51558;SDS011;61650;48.882;2.092;2022-10-31T15:03:16;13.20;;;7.90;;
51558;SDS011;61650;48.882;2.092;2022-10-31T15:05:50;13.63;;;7.83;;
51558;SDS011;61650;48.882;2.092;2022-10-31T15:11:16;12.53;;;7.70;;
51558;SDS011;61650;48.882;2.092;2022-10-31T15:13:48;13.40;;;7.70;;
51558;SDS011;61650;48.882;2.092;2022-10-31T15:16:20;10.57;;;7.50;;
51558;SDS011;61650;48.882;2.092;2022-10-31T15:18:56;12.97;;;7.20;;
51558;SDS011;61650;48.882;2.092;2022-10-31T15:21:25;11.33;;;7.10;;
51558;SDS011;61650;48.882;2.092;2022-10-31T15:23:56;8.20;;;7.40;;
51558;SDS011;61650;48.882;2.092;2022-10-31T15:26:24;13.07;;;7.90;;
51558;SDS011;61650;48.882;2.092;2022-10-31T15:31:30;13.57;;;7.60;;
51558;SDS011;61650;48.882;2.092;2022-10-31T15:33:58;11.03;;;7.73;;
51558;SDS011;61650;48.882;2.092;2022-10-31T15:36:47;14.73;;;7.50;;
51558;SDS011;61650;48.882;2.092;2022-10-31T15:39:14;14.70;;;7.97;;
51558;SDS011;61650;48.882;2.092;2022-10-31T15:41:52;14.33;;;7.80;;
51558;SDS011;61650;48.882;2.092;2022-10-31T15:44:35;12.43;;;7.50;;
51558;SDS011;61650;48.882;2.092;2022-10-31T15:47:12;11.67;;;7.27;;
51558;SDS011;61650;48.882;2.092;2022-10-31T15:49:52;8.80;;;6.63;;
51558;SDS011;61650;48.882;2.092;2022-10-31T15:55:01;13.93;;;7.70;;
51558;SDS011;61650;48.882;2.092;2022-10-31T15:57:30;13.30;;;7.73;;
51558;SDS011;61650;48.882;2.092;2022-10-31T15:59:57;12.40;;;7.87;;
51558;SDS011;61650;48.882;2.092;2022-10-31T16:02:24;12.73;;;7.73;;
51558;SDS011;61650;48.882;2.092;2022-10-31T16:04:53;10.23;;;7.60;;
51558;SDS011;61650;48.882;2.092;2022-10-31T16:07:26;11.50;;;7.97;;
51558;SDS011;61650;48.882;2.092;2022-10-31T16:12:31;12.27;;;7.47;;
51558;SDS011;61650;48.882;2.092;2022-10-31T16:14:57;9.07;;;6.57;;
51558;SDS011;61650;48.882;2.092;2022-10-31T16:17:23;10.27;;;7.90;;
51558;SDS011;61650;48.882;2.092;2022-10-31T16:19:55;9.47;;;7.57;;
51558;SDS011;61650;48.882;2.092;2022-10-31T16:22:27;11.17;;;8.00;;
51558;SDS011;61650;48.882;2.092;2022-10-31T16:25:05;16.07;;;7.80;;
51558;SDS011;61650;48.882;2.092;2022-10-31T16:27:39;10.70;;;8.30;;
51558;SDS011;61650;48.882;2.092;2022-10-31T16:32:53;9.60;;;7.90;;
51558;SDS011;61650;48.882;2.092;2022-10-31T16:38:00;16.50;;;8.33;;
51558;SDS011;61650;48.882;2.092;2022-10-31T16:40:26;15.93;;;7.90;;
51558;SDS011;61650;48.882;2.092;2022-10-31T16:42:52;15.43;;;8.57;;
51558;SDS011;61650;48.882;2.092;2022-10-31T16:45:22;11.53;;;7.73;;
51558;SDS011;61650;48.882;2.092;2022-10-31T16:47:49;14.43;;;8.90;;
51558;SDS011;61650;48.882;2.092;2022-10-31T16:50:19;16.03;;;9.00;;
51558;SDS011;61650;48.882;2.092;2022-10-31T16:52:49;20.40;;;8.33;;
51558;SDS011;61650;48.882;2.092;2022-10-31T16:55:15;16.30;;;8.20;;
51558;SDS011;61650;48.882;2.092;2022-10-31T16:57:44;12.53;;;7.70;;
51558;SDS011;61650;48.882;2.092;2022-10-31T17:00:24;12.50;;;7.80;;
51558;SDS011;61650;48.882;2.092;2022-10-31T17:02:51;13.00;;;7.90;;
51558;SDS011;61650;48.882;2.092;2022-10-31T17:05:19;12.50;;;7.67;;
51558;SDS011;61650;48.882;2.092;2022-10-31T17:07:46;10.47;;;7.37;;